createdAt,value
2023-02-09T00:00:48.225Z,5.03
2023-02-09T00:03:51.485Z,4.57
2023-02-09T00:06:53.277Z,5.70
2023-02-09T00:09:55.042Z,4.33
2023-02-09T00:13:15.259Z,4.53
2023-02-09T00:16:17.489Z,5.10
2023-02-09T00:19:20.441Z,4.43
2023-02-09T00:22:22.380Z,4.67
2023-02-09T00:25:24.175Z,5.47
2023-02-09T00:28:26.170Z,3.60
2023-02-09T00:31:28.101Z,4.63
2023-02-09T00:34:29.879Z,4.10
2023-02-09T00:37:34.541Z,3.73
2023-02-09T00:40:37.664Z,4.83
2023-02-09T00:43:41.196Z,4.67
2023-02-09T00:46:43.479Z,5.10
2023-02-09T00:49:45.235Z,4.67
2023-02-09T00:52:47.028Z,4.70
2023-02-09T00:55:51.205Z,4.30
2023-02-09T00:58:52.943Z,4.77
2023-02-09T01:01:54.697Z,5.50
2023-02-09T01:04:56.472Z,3.90
2023-02-09T01:07:58.476Z,3.77
2023-02-09T01:11:00.275Z,4.77
2023-02-09T01:14:04.232Z,4.67
2023-02-09T01:17:06.445Z,3.53
2023-02-09T01:20:10.488Z,4.40
2023-02-09T01:23:12.622Z,3.67
2023-02-09T01:26:15.984Z,4.20
2023-02-09T01:29:21.280Z,3.10
2023-02-09T01:32:23.196Z,3.00
2023-02-09T01:35:24.936Z,4.00
2023-02-09T01:38:26.674Z,4.53
2023-02-09T01:41:29.067Z,4.50
2023-02-09T01:44:30.762Z,3.43
2023-02-09T01:47:35.006Z,3.70
2023-02-09T01:50:41.035Z,3.33
2023-02-09T01:53:44.429Z,3.73
2023-02-09T01:56:51.580Z,5.17
2023-02-09T02:00:15.039Z,3.70
2023-02-09T02:03:21.217Z,3.50
2023-02-09T02:06:22.993Z,3.60
2023-02-09T02:09:27.236Z,3.43
2023-02-09T02:12:29.528Z,3.67
2023-02-09T02:15:41.020Z,4.27
2023-02-09T02:18:51.588Z,3.20
2023-02-09T02:22:33.175Z,4.70
2023-02-09T02:25:57.323Z,3.33
2023-02-09T02:29:18.050Z,3.87
2023-02-09T02:32:37.081Z,3.93
2023-02-09T02:35:58.142Z,3.90
2023-02-09T02:39:08.507Z,4.40
2023-02-09T02:42:43.998Z,4.37
2023-02-09T02:46:09.812Z,3.37
2023-02-09T02:49:38.860Z,3.87
2023-02-09T02:52:44.807Z,3.47
2023-02-09T02:55:49.099Z,4.47
2023-02-09T02:58:54.184Z,4.67
2023-02-09T03:02:06.293Z,3.93
2023-02-09T03:05:08.924Z,4.37
2023-02-09T03:08:10.648Z,4.27
2023-02-09T03:11:12.625Z,3.97
2023-02-09T03:14:32.453Z,3.67
2023-02-09T03:18:11.589Z,3.03
2023-02-09T03:21:20.301Z,3.43
2023-02-09T03:24:41.257Z,3.63
2023-02-09T03:28:05.813Z,4.17
2023-02-09T03:31:09.172Z,3.70
2023-02-09T03:34:11.262Z,3.97
2023-02-09T03:37:13.119Z,4.50
2023-02-09T03:40:14.861Z,3.83
2023-02-09T03:43:16.653Z,4.47
2023-02-09T03:46:18.392Z,4.27
2023-02-09T03:49:20.293Z,5.27
2023-02-09T03:52:21.995Z,4.83
2023-02-09T03:55:24.003Z,4.03
2023-02-09T03:58:25.735Z,4.27
2023-02-09T04:01:27.448Z,4.00
2023-02-09T04:04:29.355Z,3.83
2023-02-09T04:07:31.030Z,3.50
2023-02-09T04:10:32.763Z,4.17
2023-02-09T04:13:34.591Z,4.37
2023-02-09T04:16:37.510Z,5.00
2023-02-09T04:19:39.247Z,5.47
2023-02-09T04:22:41.054Z,5.07
2023-02-09T04:25:42.762Z,4.43
2023-02-09T04:28:44.828Z,4.40
2023-02-09T04:31:46.600Z,4.37
2023-02-09T04:34:48.353Z,5.43
2023-02-09T04:37:50.129Z,3.90
2023-02-09T04:40:54.068Z,4.43
2023-02-09T04:43:55.784Z,4.67
2023-02-09T04:46:57.490Z,5.77
2023-02-09T04:49:59.192Z,5.43
2023-02-09T04:53:00.951Z,5.17
2023-02-09T04:56:03.067Z,5.37
2023-02-09T04:59:23.339Z,5.70
2023-02-09T05:02:25.042Z,4.80
2023-02-09T05:05:26.830Z,5.73
2023-02-09T05:08:29.381Z,5.00
2023-02-09T05:11:31.204Z,4.40
2023-02-09T05:14:32.872Z,4.70
2023-02-09T05:17:34.599Z,4.90
2023-02-09T05:20:36.536Z,4.20
2023-02-09T05:23:38.224Z,6.03
2023-02-09T05:26:39.965Z,5.87
2023-02-09T05:29:41.830Z,4.97
2023-02-09T05:32:43.523Z,5.00
2023-02-09T05:35:45.273Z,6.17
2023-02-09T05:43:23.394Z,5.27
2023-02-09T05:46:25.098Z,5.10
2023-02-09T05:49:26.829Z,5.63
2023-02-09T05:52:28.538Z,4.73
2023-02-09T05:55:30.230Z,5.53
2023-02-09T05:58:31.913Z,5.50
2023-02-09T06:01:34.480Z,5.43
2023-02-09T06:04:36.223Z,4.73
2023-02-09T06:07:37.924Z,5.70
2023-02-09T06:10:39.596Z,4.67
2023-02-09T06:13:41.314Z,4.97
2023-02-09T06:16:43.082Z,4.77
2023-02-09T06:19:44.796Z,5.30
2023-02-09T06:22:46.476Z,5.03
2023-02-09T06:25:48.254Z,5.27
2023-02-09T06:28:49.942Z,4.77
2023-02-09T06:31:51.767Z,5.80
2023-02-09T06:34:53.503Z,5.13
2023-02-09T06:37:58.759Z,6.00
2023-02-09T06:41:00.942Z,6.50
2023-02-09T06:44:02.975Z,5.87
2023-02-09T06:47:05.101Z,6.50
2023-02-09T06:50:07.046Z,6.27
2023-02-09T06:53:08.930Z,7.30
2023-02-09T06:56:11.912Z,18.17
2023-02-09T06:59:13.906Z,8.07
2023-02-09T07:02:15.850Z,6.30
2023-02-09T07:05:18.058Z,5.50
2023-02-09T07:08:19.732Z,6.00
2023-02-09T07:11:21.576Z,5.87
2023-02-09T07:14:23.323Z,8.60
2023-02-09T07:17:25.055Z,6.37
2023-02-09T07:20:26.750Z,5.83
2023-02-09T07:23:29.371Z,6.23
2023-02-09T07:26:31.055Z,5.97
2023-02-09T07:29:33.548Z,7.50
2023-02-09T07:32:37.877Z,6.40
2023-02-09T07:35:40.813Z,5.87
2023-02-09T07:38:42.717Z,5.43
2023-02-09T07:41:44.501Z,5.57
2023-02-09T07:44:46.166Z,5.47
2023-02-09T07:47:47.901Z,5.73
2023-02-09T07:50:50.390Z,6.63
2023-02-09T07:53:52.982Z,6.37
2023-02-09T07:56:55.618Z,6.17
2023-02-09T07:59:57.304Z,5.70
2023-02-09T08:03:00.192Z,5.27
2023-02-09T08:06:20.881Z,6.10
2023-02-09T08:09:22.637Z,5.93
2023-02-09T08:12:46.902Z,7.13
2023-02-09T08:16:00.639Z,6.20
2023-02-09T08:19:12.630Z,8.10
2023-02-09T08:22:14.519Z,6.03
2023-02-09T08:25:19.469Z,7.33
2023-02-09T08:28:34.808Z,6.57
2023-02-09T08:31:43.690Z,7.23
2023-02-09T08:34:45.417Z,6.70
2023-02-09T08:37:47.197Z,7.90
2023-02-09T08:40:48.871Z,7.60
2023-02-09T08:43:51.574Z,6.87
2023-02-09T08:46:53.394Z,7.43
2023-02-09T08:49:55.270Z,8.00
2023-02-09T08:52:57.899Z,7.87
2023-02-09T08:55:59.760Z,7.80
2023-02-09T08:59:01.616Z,5.97
2023-02-09T09:02:03.333Z,7.80
2023-02-09T09:05:05.398Z,7.10
2023-02-09T09:08:07.171Z,7.13
2023-02-09T09:11:13.129Z,8.10
2023-02-09T09:14:14.945Z,7.83
2023-02-09T09:17:16.780Z,8.53
2023-02-09T09:20:18.549Z,6.17
2023-02-09T09:23:21.165Z,7.27
2023-02-09T09:26:22.949Z,8.00
2023-02-09T09:29:25.241Z,7.33
2023-02-09T09:32:27.450Z,7.23
2023-02-09T09:35:29.236Z,8.00
2023-02-09T09:38:30.933Z,8.23
2023-02-09T09:41:38.103Z,7.20
2023-02-09T09:44:46.911Z,7.13
2023-02-09T09:47:49.302Z,8.37
2023-02-09T09:50:55.395Z,8.67
2023-02-09T09:53:59.498Z,7.43
2023-02-09T09:57:01.958Z,7.57
2023-02-09T10:00:04.530Z,6.07
2023-02-09T10:03:20.435Z,6.70
2023-02-09T10:06:23.162Z,6.40
2023-02-09T10:09:24.813Z,6.70
2023-02-09T10:12:37.727Z,7.00
2023-02-09T10:20:50.124Z,6.97
2023-02-09T10:24:14.392Z,7.13
2023-02-09T10:27:21.979Z,7.60
2023-02-09T10:30:28.682Z,7.23
2023-02-09T10:33:41.504Z,7.37
2023-02-09T10:36:45.925Z,7.27
2023-02-09T10:40:01.170Z,7.43
2023-02-09T10:43:06.943Z,5.80
2023-02-09T10:46:17.625Z,7.83
2023-02-09T10:49:31.418Z,6.80
2023-02-09T10:52:39.707Z,7.13
2023-02-09T10:55:43.356Z,7.27
2023-02-09T10:58:52.538Z,6.77
2023-02-09T11:01:59.292Z,7.33
2023-02-09T11:05:01.114Z,6.93
2023-02-09T11:08:23.221Z,6.80
2023-02-09T11:11:29.979Z,6.60
2023-02-09T11:14:31.799Z,7.20
2023-02-09T11:18:12.535Z,6.97
2023-02-09T11:21:24.626Z,6.87
2023-02-09T11:25:03.089Z,8.00
2023-02-09T11:28:22.915Z,6.57
2023-02-09T11:31:49.074Z,7.47
2023-02-09T11:35:01.205Z,7.07
2023-02-09T11:38:10.726Z,6.70
2023-02-09T11:41:36.747Z,6.90
2023-02-09T11:44:48.150Z,6.97
2023-02-09T11:48:07.988Z,7.00
2023-02-09T11:51:22.223Z,7.40
2023-02-09T11:54:29.943Z,7.47
2023-02-09T11:57:34.567Z,7.63
2023-02-09T12:00:54.820Z,8.03
2023-02-09T12:04:12.567Z,7.57
2023-02-09T12:07:51.719Z,6.20
2023-02-09T12:11:20.312Z,6.93
2023-02-09T12:14:46.270Z,7.20
2023-02-09T12:18:03.308Z,7.33
2023-02-09T12:21:06.862Z,7.50
2023-02-09T12:24:37.630Z,7.13
2023-02-09T12:27:44.058Z,7.87
2023-02-09T12:30:45.889Z,7.13
2023-02-09T12:33:47.726Z,7.37
2023-02-09T12:37:18.053Z,7.37
2023-02-09T12:40:24.159Z,7.50
2023-02-09T12:43:28.467Z,7.60
2023-02-09T12:46:30.237Z,6.33
2023-02-09T12:49:33.006Z,7.73
2023-02-09T12:52:35.054Z,7.40
2023-02-09T12:55:38.077Z,8.63
2023-02-09T12:59:29.054Z,6.37
2023-02-09T13:02:49.917Z,7.17
2023-02-09T13:05:55.956Z,6.90
2023-02-09T13:09:02.189Z,7.97
2023-02-09T13:12:14.841Z,7.27
2023-02-09T13:15:18.818Z,7.00
2023-02-09T13:18:29.537Z,8.00
2023-02-09T13:21:37.460Z,7.00
2023-02-09T13:24:44.791Z,6.87
2023-02-09T13:27:49.571Z,7.33
2023-02-09T13:30:51.394Z,5.63
2023-02-09T13:33:58.989Z,7.57
2023-02-09T13:37:42.786Z,7.73
2023-02-09T13:40:49.677Z,6.17
2023-02-09T13:43:51.421Z,7.03
2023-02-09T13:47:06.617Z,7.37
2023-02-09T13:50:14.876Z,7.10
2023-02-09T13:53:18.860Z,7.43
2023-02-09T13:56:20.611Z,7.03
2023-02-09T13:59:22.438Z,6.17
2023-02-09T14:02:27.311Z,8.37
2023-02-09T14:05:54.777Z,7.47
2023-02-09T14:08:59.184Z,7.17
2023-02-09T14:12:05.458Z,7.90
2023-02-09T14:15:31.534Z,7.77
2023-02-09T14:18:33.245Z,8.23
2023-02-09T14:21:39.898Z,6.80
2023-02-09T14:24:44.044Z,7.53
2023-02-09T14:27:47.306Z,7.67
2023-02-09T14:30:50.788Z,8.70
2023-02-09T14:33:55.208Z,9.00
2023-02-09T14:37:25.073Z,8.10
2023-02-09T14:40:26.736Z,7.70
2023-02-09T14:43:28.468Z,7.47
2023-02-09T14:46:50.595Z,7.43
2023-02-09T14:49:52.318Z,9.00
2023-02-09T14:53:06.903Z,8.70
2023-02-09T14:56:24.225Z,8.57
2023-02-09T14:59:25.917Z,8.37
2023-02-09T15:02:28.241Z,9.17
2023-02-09T15:05:30.024Z,8.63
2023-02-09T15:08:35.500Z,9.50
2023-02-09T15:11:56.058Z,8.63
2023-02-09T15:15:00.114Z,8.20
2023-02-09T15:18:01.940Z,8.47
2023-02-09T15:21:03.769Z,8.37
2023-02-09T15:24:05.728Z,7.73
2023-02-09T15:27:33.995Z,7.83
2023-02-09T15:30:35.884Z,8.20
2023-02-09T15:33:37.679Z,8.43
2023-02-09T15:36:39.412Z,8.90
2023-02-09T15:39:41.116Z,7.80
2023-02-09T15:43:01.426Z,7.53
2023-02-09T15:46:03.676Z,7.07
2023-02-09T15:49:05.770Z,7.40
2023-02-09T15:52:08.120Z,8.23
2023-02-09T15:55:17.988Z,6.37
2023-02-09T15:58:35.234Z,8.23
2023-02-09T16:01:37.554Z,7.27
2023-02-09T16:04:39.465Z,7.23
2023-02-09T16:07:41.249Z,7.73
2023-02-09T16:10:43.011Z,7.23
2023-02-09T16:13:44.728Z,6.57
2023-02-09T16:16:47.286Z,7.40
2023-02-09T16:19:49.043Z,7.77
2023-02-09T16:22:52.447Z,7.70
2023-02-09T16:25:54.595Z,7.50
2023-02-09T16:28:56.857Z,8.53
2023-02-09T16:31:58.598Z,8.10
2023-02-09T16:35:14.500Z,7.10
2023-02-09T16:38:19.533Z,8.37
2023-02-09T16:41:40.009Z,8.73
2023-02-09T16:44:42.488Z,9.27
2023-02-09T16:47:49.656Z,8.17
2023-02-09T16:50:53.657Z,8.60
2023-02-09T16:53:55.476Z,7.67
2023-02-09T16:56:57.198Z,9.10
2023-02-09T16:59:58.920Z,8.60
2023-02-09T17:03:03.546Z,7.70
2023-02-09T17:06:09.244Z,8.17
2023-02-09T17:09:15.238Z,8.63
2023-02-09T17:12:16.934Z,9.30
2023-02-09T17:15:29.490Z,8.40
2023-02-09T17:18:38.790Z,8.47
2023-02-09T17:21:40.829Z,8.80
2023-02-09T17:24:42.568Z,9.43
2023-02-09T17:27:45.005Z,9.70
2023-02-09T17:30:48.005Z,9.53
2023-02-09T17:33:57.922Z,9.77
2023-02-09T17:36:59.868Z,8.70
2023-02-09T17:40:01.568Z,8.67
2023-02-09T17:43:03.360Z,8.77
2023-02-09T17:46:06.227Z,8.47
2023-02-09T17:49:08.116Z,9.10
2023-02-09T17:52:18.064Z,8.33
2023-02-09T17:55:25.890Z,9.53
2023-02-09T17:58:27.762Z,8.47
2023-02-09T18:01:32.460Z,8.43
2023-02-09T18:04:34.251Z,9.37
2023-02-09T18:07:35.926Z,8.03
2023-02-09T18:10:37.900Z,9.07
2023-02-09T18:13:39.793Z,13.30
2023-02-09T18:16:42.621Z,12.00
2023-02-09T18:19:44.549Z,9.13
2023-02-09T18:22:46.353Z,9.17
2023-02-09T18:25:50.055Z,12.67
2023-02-09T18:28:51.873Z,10.30
2023-02-09T18:31:53.941Z,8.30
2023-02-09T18:34:55.659Z,7.90
2023-02-09T18:37:57.819Z,8.10
2023-02-09T18:40:59.606Z,8.30
2023-02-09T18:44:01.419Z,9.07
2023-02-09T18:47:03.351Z,8.93
2023-02-09T18:50:05.352Z,9.03
2023-02-09T18:53:07.300Z,8.50
2023-02-09T18:56:16.848Z,9.37
2023-02-09T18:59:18.564Z,9.83
2023-02-09T19:02:20.935Z,9.10
2023-02-09T19:05:26.064Z,9.90
2023-02-09T19:08:27.829Z,9.57
2023-02-09T19:11:29.639Z,11.10
2023-02-09T19:14:37.072Z,10.10
2023-02-09T19:17:40.304Z,9.87
2023-02-09T19:20:42.048Z,10.07
2023-02-09T19:23:43.767Z,10.10
2023-02-09T19:26:45.445Z,9.57
2023-02-09T19:29:47.170Z,10.03
2023-02-09T19:32:49.147Z,9.97
2023-02-09T19:35:58.413Z,10.67
2023-02-09T19:39:01.005Z,11.07
2023-02-09T19:42:02.684Z,11.40
2023-02-09T19:45:04.557Z,10.17
2023-02-09T19:48:07.427Z,10.30
2023-02-09T19:51:09.280Z,11.93
2023-02-09T19:54:11.219Z,11.63
2023-02-09T19:57:12.906Z,11.03
2023-02-09T20:00:18.100Z,10.30
2023-02-09T20:03:19.890Z,10.37
2023-02-09T20:06:21.723Z,12.07
2023-02-09T20:09:23.682Z,10.50
2023-02-09T20:12:25.588Z,10.73
2023-02-09T20:15:27.907Z,11.47
2023-02-09T20:18:30.221Z,10.57
2023-02-09T20:21:31.921Z,10.80
2023-02-09T20:24:33.630Z,11.80
2023-02-09T20:27:35.400Z,11.50
2023-02-09T20:30:40.828Z,12.80
2023-02-09T20:33:43.144Z,12.37
2023-02-09T20:36:45.825Z,12.20
2023-02-09T20:39:47.564Z,10.77
2023-02-09T20:43:08.079Z,11.70
2023-02-09T20:46:37.539Z,12.07
2023-02-09T20:49:40.533Z,12.77
2023-02-09T20:52:42.378Z,12.20
2023-02-09T20:55:44.406Z,11.60
2023-02-09T20:58:46.109Z,13.10
2023-02-09T21:01:47.997Z,13.67
2023-02-09T21:04:49.991Z,14.57
2023-02-09T21:07:52.054Z,13.17
2023-02-09T21:10:58.211Z,14.23
2023-02-09T21:14:01.344Z,15.13
2023-02-09T21:17:03.966Z,14.03
2023-02-09T21:20:06.220Z,14.50
2023-02-09T21:23:07.959Z,16.17
2023-02-09T21:26:12.965Z,13.97
2023-02-09T21:29:15.036Z,14.47
2023-02-09T21:32:18.087Z,13.80
2023-02-09T21:35:19.889Z,15.67
2023-02-09T21:38:21.609Z,12.90
2023-02-09T21:41:44.288Z,14.07
2023-02-09T21:44:45.987Z,14.00
2023-02-09T21:47:47.756Z,13.63
2023-02-09T21:50:49.442Z,14.03
2023-02-09T21:53:51.541Z,14.67
2023-02-09T21:56:53.228Z,15.00
2023-02-09T21:59:55.657Z,14.60
2023-02-09T22:02:57.499Z,13.70
2023-02-09T22:06:00.759Z,14.93
2023-02-09T22:09:03.757Z,15.10
2023-02-09T22:12:06.195Z,14.70
2023-02-09T22:15:08.363Z,14.03
2023-02-09T22:18:11.031Z,14.83
2023-02-09T22:21:12.839Z,15.37
2023-02-09T22:24:16.387Z,13.60
2023-02-09T22:27:18.175Z,12.97
2023-02-09T22:30:19.913Z,15.97
2023-02-09T22:33:22.089Z,14.87
2023-02-09T22:36:24.020Z,15.00
2023-02-09T22:39:25.721Z,14.33
2023-02-09T22:42:27.451Z,15.00
2023-02-09T22:45:29.348Z,14.73
2023-02-09T22:48:31.046Z,14.80
2023-02-09T22:51:34.833Z,15.63
2023-02-09T22:54:36.604Z,12.20
2023-02-09T22:57:38.593Z,15.40
2023-02-09T23:00:40.295Z,15.13
2023-02-09T23:03:42.111Z,15.47
2023-02-09T23:06:43.949Z,14.83
2023-02-09T23:09:45.615Z,16.23
2023-02-09T23:12:47.292Z,14.97
2023-02-09T23:15:49.335Z,15.30
2023-02-09T23:18:52.751Z,15.53
2023-02-09T23:21:54.584Z,16.63
2023-02-09T23:24:56.289Z,16.27
2023-02-09T23:27:58.020Z,16.13
2023-02-09T23:31:07.390Z,17.03
2023-02-09T23:34:13.830Z,17.60
2023-02-09T23:37:23.597Z,13.87
2023-02-09T23:40:39.196Z,15.13
2023-02-09T23:43:41.046Z,15.70
2023-02-09T23:46:42.905Z,16.07
2023-02-09T23:49:44.641Z,16.17
2023-02-09T23:52:46.341Z,15.33
2023-02-09T23:55:52.328Z,15.77
2023-02-09T23:58:54.781Z,15.77
